createdAt,value
2023-04-20T00:00:36.277Z,102524.38
2023-04-20T00:05:37.856Z,102511.56
2023-04-20T00:10:39.640Z,102515.75
2023-04-20T00:15:41.137Z,102509.13
2023-04-20T00:20:42.585Z,102495.84
2023-04-20T00:25:44.117Z,102483.66
2023-04-20T00:30:45.656Z,102471.41
2023-04-20T00:35:47.233Z,102477.06
2023-04-20T00:40:53.221Z,102471.19
2023-04-20T00:45:54.963Z,102461.50
2023-04-20T00:50:56.719Z,102457.94
2023-04-20T00:55:58.334Z,102445.66
2023-04-20T01:00:59.935Z,102423.91
2023-04-20T01:06:02.411Z,102432.59
2023-04-20T01:11:03.922Z,102419.78
2023-04-20T01:16:05.708Z,102408.47
2023-04-20T01:21:07.380Z,102403.66
2023-04-20T01:26:10.737Z,102396.91
2023-04-20T01:31:12.889Z,102393.94
2023-04-20T01:36:14.661Z,102397.84
2023-04-20T01:41:16.125Z,102391.94
2023-04-20T01:46:17.666Z,102376.03
2023-04-20T01:51:19.156Z,102371.13
2023-04-20T01:56:20.689Z,102356.03
2023-04-20T02:01:22.302Z,102348.41
2023-04-20T02:06:23.908Z,102342.00
2023-04-20T02:11:26.258Z,102338.16
2023-04-20T02:16:29.416Z,102328.28
2023-04-20T02:21:31.501Z,102324.69
2023-04-20T02:26:33.024Z,102308.88
2023-04-20T02:31:34.563Z,102299.84
2023-04-20T02:36:36.234Z,102298.63
2023-04-20T02:41:37.719Z,102285.88
2023-04-20T02:46:39.237Z,102279.44
2023-04-20T02:51:40.733Z,102280.31
2023-04-20T02:56:42.190Z,102267.44
2023-04-20T03:01:43.687Z,102267.06
2023-04-20T03:06:45.248Z,102256.31
2023-04-20T03:11:46.842Z,102248.91
2023-04-20T03:16:48.539Z,102238.63
2023-04-20T03:21:57.224Z,102239.63
2023-04-20T03:26:58.760Z,102233.19
2023-04-20T03:32:00.249Z,102224.44
2023-04-20T03:37:01.913Z,102218.84
2023-04-20T03:42:03.749Z,102212.28
2023-04-20T03:47:05.574Z,102206.22
2023-04-20T03:52:07.273Z,102217.09
2023-04-20T03:57:08.920Z,102206.56
2023-04-20T04:02:13.265Z,102194.72
2023-04-20T04:07:14.896Z,102204.72
2023-04-20T04:12:17.881Z,102186.28
2023-04-20T04:17:19.433Z,102183.84
2023-04-20T04:22:20.966Z,102174.91
2023-04-20T04:27:23.127Z,102169.59
2023-04-20T04:32:24.629Z,102168.47
2023-04-20T04:37:27.152Z,102183.94
2023-04-20T04:42:29.035Z,102168.25
2023-04-20T04:47:41.204Z,102164.25
2023-04-20T04:52:42.805Z,102161.44
2023-04-20T04:57:44.411Z,102154.50
2023-04-20T05:02:46.111Z,102155.16
2023-04-20T05:07:47.952Z,102154.00
2023-04-20T05:12:49.537Z,102143.75
2023-04-20T05:17:51.222Z,102145.13
2023-04-20T05:22:52.814Z,102140.16
2023-04-20T05:27:54.350Z,102159.97
2023-04-20T05:32:55.933Z,102165.44
2023-04-20T05:38:00.359Z,102155.88
2023-04-20T05:43:01.946Z,102164.03
2023-04-20T05:48:04.026Z,102133.22
2023-04-20T05:53:05.682Z,102148.78
2023-04-20T05:58:07.225Z,102148.38
2023-04-20T06:03:08.938Z,102137.91
2023-04-20T06:08:10.637Z,102136.69
2023-04-20T06:13:12.263Z,102127.41
2023-04-20T06:18:13.908Z,102131.00
2023-04-20T06:23:15.792Z,102140.78
2023-04-20T06:28:17.312Z,102146.59
2023-04-20T06:33:18.983Z,102144.06
2023-04-20T06:38:20.784Z,102141.06
2023-04-20T06:43:22.317Z,102126.16
2023-04-20T06:48:32.107Z,102133.56
2023-04-20T06:53:34.766Z,102145.31
2023-04-20T06:58:36.290Z,102150.38
2023-04-20T07:03:38.358Z,102148.09
2023-04-20T07:08:39.979Z,102154.09
2023-04-20T07:13:41.504Z,102138.88
2023-04-20T07:18:42.964Z,102131.13
2023-04-20T07:23:45.097Z,102132.97
2023-04-20T07:28:46.885Z,102126.41
2023-04-20T07:33:48.397Z,102127.50
2023-04-20T07:38:50.036Z,102134.00
2023-04-20T07:43:51.571Z,102137.38
2023-04-20T07:48:53.211Z,102135.03
2023-04-20T07:53:54.693Z,102132.53
2023-04-20T07:58:56.430Z,102146.41
2023-04-20T08:03:58.075Z,102139.34
2023-04-20T08:08:59.886Z,102126.25
2023-04-20T08:14:01.624Z,102133.78
2023-04-20T08:19:09.938Z,102134.88
2023-04-20T08:24:12.186Z,102127.31
2023-04-20T08:29:13.642Z,102123.00
2023-04-20T08:34:15.304Z,102129.44
2023-04-20T08:39:20.592Z,102111.34
2023-04-20T08:44:22.686Z,102116.97
2023-04-20T08:49:27.462Z,102118.06
2023-04-20T08:54:29.042Z,102116.13
2023-04-20T08:59:31.058Z,102117.56
2023-04-20T09:04:32.619Z,102098.31
2023-04-20T09:09:34.287Z,102085.81
2023-04-20T09:14:46.740Z,102087.22
2023-04-20T09:19:53.404Z,102092.19
2023-04-20T09:24:55.156Z,102098.31
2023-04-20T09:29:58.765Z,102103.09
2023-04-20T09:35:00.248Z,102111.75
2023-04-20T09:40:02.691Z,102114.50
2023-04-20T09:45:04.736Z,102091.50
2023-04-20T09:50:19.517Z,102087.72
2023-04-20T09:55:26.642Z,102074.34
2023-04-20T10:00:28.370Z,102079.53
2023-04-20T10:05:39.388Z,102079.16
2023-04-20T10:10:59.135Z,102079.50
2023-04-20T10:16:00.735Z,102068.44
2023-04-20T10:21:13.541Z,102080.31
2023-04-20T10:26:15.080Z,102074.25
2023-04-20T10:31:17.078Z,102070.75
2023-04-20T10:36:34.297Z,102068.03
2023-04-20T10:41:36.988Z,102067.91
2023-04-20T10:46:38.518Z,102053.50
2023-04-20T10:51:46.994Z,102069.19
2023-04-20T10:56:52.417Z,102046.94
2023-04-20T11:01:55.404Z,102053.13
2023-04-20T11:07:05.501Z,102055.22
2023-04-20T11:12:09.236Z,102062.38
2023-04-20T11:17:11.073Z,102051.88
2023-04-20T11:22:21.667Z,102056.31
2023-04-20T11:27:23.871Z,102058.50
2023-04-20T11:32:26.778Z,102037.91
2023-04-20T11:37:29.163Z,102017.75
2023-04-20T11:42:30.761Z,102029.41
2023-04-20T11:47:32.321Z,102017.38
2023-04-20T11:52:33.833Z,102017.28
2023-04-20T11:57:35.421Z,102026.69
2023-04-20T12:02:37.050Z,102012.88
2023-04-20T12:07:38.636Z,102005.28
2023-04-20T12:12:41.995Z,102018.19
2023-04-20T12:17:43.491Z,102015.00
2023-04-20T12:22:45.011Z,102009.09
2023-04-20T12:27:48.137Z,102009.59
2023-04-20T12:32:51.060Z,102001.06
2023-04-20T12:37:52.789Z,101991.56
2023-04-20T12:42:54.332Z,101981.63
2023-04-20T12:47:57.247Z,101986.06
2023-04-20T12:52:59.314Z,101978.06
2023-04-20T12:58:00.789Z,101962.50
2023-04-20T13:03:02.580Z,101964.16
2023-04-20T13:08:04.299Z,101960.59
2023-04-20T13:13:05.792Z,101960.59
2023-04-20T13:18:07.653Z,101945.09
2023-04-20T13:23:09.508Z,101948.75
2023-04-20T13:28:14.027Z,101959.88
2023-04-20T13:33:16.300Z,101950.72
2023-04-20T13:38:17.900Z,101944.59
2023-04-20T13:43:21.438Z,101954.66
2023-04-20T13:48:23.544Z,101938.66
2023-04-20T13:53:25.023Z,101942.81
2023-04-20T13:58:28.642Z,101939.59
2023-04-20T14:03:30.292Z,101941.53
2023-04-20T14:08:32.012Z,101914.88
2023-04-20T14:13:33.535Z,101908.69
2023-04-20T14:18:35.198Z,101911.09
2023-04-20T14:23:36.775Z,101906.00
2023-04-20T14:28:38.308Z,101900.59
2023-04-20T14:33:41.498Z,101892.75
2023-04-20T14:38:43.041Z,101927.66
2023-04-20T14:43:44.543Z,101899.53
2023-04-20T14:48:46.483Z,101877.25
2023-04-20T14:53:48.008Z,101874.94
2023-04-20T14:58:49.525Z,101879.72
2023-04-20T15:03:51.342Z,101871.38
2023-04-20T15:08:55.152Z,101869.09
2023-04-20T15:13:56.660Z,101866.94
2023-04-20T15:18:58.191Z,101863.78
2023-04-20T15:23:59.727Z,101857.16
2023-04-20T15:29:01.222Z,101858.19
2023-04-20T15:34:02.810Z,101855.19
2023-04-20T15:39:04.378Z,101848.09
2023-04-20T15:44:06.247Z,101862.31
2023-04-20T15:49:07.763Z,101846.78
2023-04-20T15:54:09.212Z,101860.94
2023-04-20T15:59:10.736Z,101853.63
2023-04-20T16:04:13.727Z,101863.84
2023-04-20T16:09:15.527Z,101868.22
2023-04-20T16:14:17.245Z,101854.28
2023-04-20T16:19:19.168Z,101859.41
2023-04-20T16:24:21.109Z,101854.28
2023-04-20T16:29:22.626Z,101859.28
2023-04-20T16:34:24.523Z,101850.97
2023-04-20T16:39:26.054Z,101859.63
2023-04-20T16:44:27.532Z,101859.91
2023-04-20T16:49:29.161Z,101858.94
2023-04-20T16:54:30.672Z,101858.28
2023-04-20T16:59:32.185Z,101860.91
2023-04-20T17:04:33.835Z,101854.72
2023-04-20T17:09:35.493Z,101846.78
2023-04-20T17:14:37.182Z,101854.84
2023-04-20T17:19:40.818Z,101852.09
2023-04-20T17:24:42.372Z,101857.47
2023-04-20T17:29:44.939Z,101845.66
2023-04-20T17:34:48.667Z,101843.38
2023-04-20T17:39:50.434Z,101847.41
2023-04-20T17:44:52.138Z,101855.88
2023-04-20T17:49:59.658Z,101857.16
2023-04-20T17:55:01.918Z,101836.75
2023-04-20T18:00:05.147Z,101851.66
2023-04-20T18:05:07.134Z,101854.97
2023-04-20T18:10:09.249Z,101864.91
2023-04-20T18:15:12.481Z,101863.47
2023-04-20T18:20:14.088Z,101860.63
2023-04-20T18:25:16.516Z,101862.06
2023-04-20T18:30:18.344Z,101882.50
2023-04-20T18:35:19.911Z,101862.38
2023-04-20T18:40:21.473Z,101869.94
2023-04-20T18:45:23.865Z,101873.41
2023-04-20T18:50:25.359Z,101877.03
2023-04-20T18:55:26.840Z,101890.34
2023-04-20T19:00:28.343Z,101889.75
2023-04-20T19:05:30.804Z,101887.34
2023-04-20T19:10:32.329Z,101878.72
2023-04-20T19:15:34.122Z,101898.19
2023-04-20T19:20:36.089Z,101874.88
2023-04-20T19:25:38.145Z,101876.50
2023-04-20T19:30:39.693Z,101883.25
2023-04-20T19:35:42.153Z,101876.94
2023-04-20T19:40:43.795Z,101875.47
2023-04-20T19:45:45.366Z,101863.13
2023-04-20T19:50:47.065Z,101869.97
2023-04-20T19:55:48.592Z,101888.59
2023-04-20T20:00:51.040Z,101879.09
2023-04-20T20:05:52.539Z,101870.75
2023-04-20T20:10:54.003Z,101866.75
2023-04-20T20:15:55.578Z,101859.00
2023-04-20T20:20:57.084Z,101863.59
2023-04-20T20:25:58.534Z,101878.34
2023-04-20T20:31:00.493Z,101873.16
2023-04-20T20:36:04.267Z,101870.41
2023-04-20T20:41:06.633Z,101864.72
2023-04-20T20:46:09.629Z,101872.19
2023-04-20T20:51:11.755Z,101868.69
2023-04-20T20:56:13.718Z,101870.41
2023-04-20T21:01:16.422Z,101868.09
2023-04-20T21:06:18.046Z,101859.81
2023-04-20T21:11:19.553Z,101864.63
2023-04-20T21:16:21.072Z,101840.25
2023-04-20T21:21:22.755Z,101837.63
2023-04-20T21:26:24.324Z,101850.53
2023-04-20T21:31:25.842Z,101848.09
2023-04-20T21:36:27.894Z,101840.38
2023-04-20T21:41:29.829Z,101827.28
2023-04-20T21:46:31.377Z,101832.75
2023-04-20T21:51:32.996Z,101830.00
2023-04-20T21:56:34.459Z,101802.88
2023-04-20T22:01:36.041Z,101818.25
2023-04-20T22:06:37.543Z,101826.75
2023-04-20T22:11:40.275Z,101830.34
2023-04-20T22:16:41.834Z,101816.00
2023-04-20T22:21:43.633Z,101822.28
2023-04-20T22:26:45.253Z,101820.16
2023-04-20T22:31:46.823Z,101804.94
2023-04-20T22:36:48.589Z,101805.94
2023-04-20T22:41:50.073Z,101800.78
2023-04-20T22:46:52.293Z,101793.34
2023-04-20T22:51:56.990Z,101794.34
2023-04-20T22:56:58.818Z,101792.63
2023-04-20T23:02:00.471Z,101809.41
2023-04-20T23:07:02.181Z,101800.94
2023-04-20T23:12:04.400Z,101808.13
2023-04-20T23:17:06.520Z,101789.03
2023-04-20T23:22:09.098Z,101798.63
2023-04-20T23:27:10.722Z,101785.72
2023-04-20T23:32:12.238Z,101764.19
2023-04-20T23:37:13.783Z,101756.44
2023-04-20T23:42:15.479Z,101743.81
2023-04-20T23:47:17.628Z,101731.91
2023-04-20T23:52:19.149Z,101733.63
2023-04-20T23:57:20.787Z,101699.69
